Niagara College

*Note: All times are displayed in the local standard time of the station location.
**Rain - Equipment is designed to accurately record liquid precipitation; under conditions when precipitation is not in liquid form, the data displayed may not properly reflect rainfall values.

Date Max Temp
(°C)
Min Temp
(°C)
Avg Temp
(°C)
Rain (mm) Avg RH (%)
Mon, Apr 23, 2018 19.7 4.8 11.6 0.0 42.5
Sun, Apr 22, 2018 15.9 -0.3 8.8 0.0 44.9
Sat, Apr 21, 2018 14.0 -2.0 6.1 0.0 51.9
Fri, Apr 20, 2018 8.3 -1.3 2.8 0.0 59.3
Thu, Apr 19, 2018 4.1 0.8 2.2 0.0 66.2
Wed, Apr 18, 2018 4.5 0.6 2.1 0.2 76.8
Tue, Apr 17, 2018 1.7 -1.0 0.6 1.0 76.6
DateTime Avg Temp (°C) Rain (mm) RH (%)
Tue, Apr 24, 2018 18:00 12.9 0.8 82.3
Tue, Apr 24, 2018 17:00 13.9 0.0 71.8
Tue, Apr 24, 2018 16:00 15.8 0.0 55.3
Tue, Apr 24, 2018 15:00 17.6 0.0 42.5
Tue, Apr 24, 2018 14:00 18.2 0.0 39.5
Tue, Apr 24, 2018 13:00 18.0 0.0 41.5
Tue, Apr 24, 2018 12:00 16.2 0.0 43.0
Tue, Apr 24, 2018 11:00 14.6 0.0 54.8
Tue, Apr 24, 2018 10:00 14.0 0.0 60.8
Tue, Apr 24, 2018 09:00 13.8 0.0 58.5
Tue, Apr 24, 2018 08:00 12.9 0.0 59.8
Tue, Apr 24, 2018 07:00 12.2 0.0 61.5
Tue, Apr 24, 2018 06:00 12.4 0.0 59.8
Tue, Apr 24, 2018 05:00 12.1 0.0 59.5
Tue, Apr 24, 2018 04:00 12.1 0.0 57.8
Tue, Apr 24, 2018 03:00 12.1 0.0 55.8
Tue, Apr 24, 2018 02:00 10.7 0.0 56.3
Tue, Apr 24, 2018 01:00 5.3 0.0 75.0
Tue, Apr 24, 2018 00:00 5.1 0.0 75.8
Mon, Apr 23, 2018 23:00 5.3 0.0 76.3
Mon, Apr 23, 2018 22:00 5.9 0.0 72.5
Mon, Apr 23, 2018 21:00 7.2 0.0 69.5
Mon, Apr 23, 2018 20:00 11.8 0.0 54.0
Mon, Apr 23, 2018 19:00 16.7 0.0 37.5
Mon, Apr 23, 2018 18:00 18.5 0.0 33.3
Mon, Apr 23, 2018 17:00 19.5 0.0 29.3
Mon, Apr 23, 2018 16:00 19.1 0.0 28.3
Mon, Apr 23, 2018 15:00 18.3 0.0 28.8
Mon, Apr 23, 2018 14:00 17.6 0.0 33.0
Mon, Apr 23, 2018 13:00 19.3 0.0 23.5
Mon, Apr 23, 2018 12:00 18.3 0.0 23.0
Mon, Apr 23, 2018 11:00 16.3 0.0 26.5
Mon, Apr 23, 2018 10:00 14.1 0.0 27.8
Mon, Apr 23, 2018 09:00 10.0 0.0 47.0
Mon, Apr 23, 2018 08:00 6.9 0.0 51.3
Mon, Apr 23, 2018 07:00 6.2 0.0 42.3
Mon, Apr 23, 2018 06:00 6.5 0.0 39.8
Mon, Apr 23, 2018 05:00 6.6 0.0 39.8
Mon, Apr 23, 2018 04:00 7.5 0.0 37.3
Mon, Apr 23, 2018 03:00 8.3 0.0 34.8
Mon, Apr 23, 2018 02:00 7.7 0.0 37.8
Mon, Apr 23, 2018 01:00 6.6 0.0 52.3
Mon, Apr 23, 2018 00:00 9.7 0.0 33.8
Sun, Apr 22, 2018 23:00 10.4 0.0 30.5
Sun, Apr 22, 2018 22:00 10.0 0.0 33.0
Sun, Apr 22, 2018 21:00 11.6 0.0 31.0
Sun, Apr 22, 2018 20:00 14.4 0.0 23.5
Sun, Apr 22, 2018 19:00 15.5 0.0 20.8


asterix Register now to access more data! asterix